Time;durP1;ratioP1;P1;durP2;ratioP2;P2;SDS_P1;SDS_P2;PMS_P1;PMS_P2;Temp;Humidity;BMP_temperature;BMP_pressure;BME280_temperature;BME280_humidity;BME280_pressure;Samples;Min_cycle;Max_cycle;Signal;HPM_P1;HPM_P2
2023/03/15 00:01:26;;;;;;;4.38;2.33;;;;;;;;;;4992786;28;20100;-58
2023/03/15 00:03:54;;;;;;;4.10;2.08;;;;;;;;;;4992715;28;20042;-58
2023/03/15 00:06:21;;;;;;;5.30;2.42;;;;;;;;;;4992403;28;20039;-58
2023/03/15 00:08:50;;;;;;;4.35;2.20;;;;;;;;;;4992890;28;20054;-58
2023/03/15 00:11:18;;;;;;;4.13;2.20;;;;;;;;;;4992351;28;20571;-58
2023/03/15 00:13:46;;;;;;;5.88;2.83;;;;;;;;;;4992541;28;20597;-58
2023/03/15 00:16:16;;;;;;;4.60;2.85;;;;;;;;;;4992747;28;20488;-57
2023/03/15 00:18:45;;;;;;;4.75;2.50;;;;;;;;;;4996150;28;20046;-58
2023/03/15 00:21:13;;;;;;;5.60;3.00;;;;;;;;;;4996439;28;20050;-58
2023/03/15 00:23:41;;;;;;;4.65;2.47;;;;;;;;;;4975501;28;20038;-58
2023/03/15 00:26:09;;;;;;;5.97;2.70;;;;;;;;;;4992951;28;20050;-58
2023/03/15 00:28:36;;;;;;;6.72;3.45;;;;;;;;;;4996037;28;20041;-58
2023/03/15 00:31:05;;;;;;;5.93;3.13;;;;;;;;;;4975357;28;20062;-58
2023/03/15 00:33:33;;;;;;;7.72;3.83;;;;;;;;;;4975131;28;20049;-58
2023/03/15 00:36:06;;;;;;;6.43;3.78;;;;;;;;;;4992002;28;20144;-58
2023/03/15 00:38:34;;;;;;;8.45;4.15;;;;;;;;;;4995777;28;20046;-59
2023/03/15 00:41:09;;;;;;;8.70;4.50;;;;;;;;;;4975006;28;20461;-57
2023/03/15 00:43:36;;;;;;;8.98;4.32;;;;;;;;;;4988012;28;20097;-57
2023/03/15 00:46:04;;;;;;;10.32;3.95;;;;;;;;;;4974934;28;20053;-57
2023/03/15 00:48:34;;;;;;;8.05;4.35;;;;;;;;;;4974996;28;20497;-57
2023/03/15 00:51:05;;;;;;;9.10;4.20;;;;;;;;;;4975112;28;20393;-59
2023/03/15 00:53:33;;;;;;;8.75;4.07;;;;;;;;;;4974913;28;20529;-58
2023/03/15 00:56:05;;;;;;;8.68;4.50;;;;;;;;;;4991570;28;20045;-59
2023/03/15 00:58:32;;;;;;;7.88;4.22;;;;;;;;;;4995464;28;20046;-59
2023/03/15 01:01:00;;;;;;;8.10;3.65;;;;;;;;;;4995571;28;20038;-59
2023/03/15 01:03:28;;;;;;;9.85;3.95;;;;;;;;;;4977415;28;20081;-59
2023/03/15 01:05:55;;;;;;;11.18;4.13;;;;;;;;;;4974715;28;20042;-58
2023/03/15 01:08:23;;;;;;;7.05;4.00;;;;;;;;;;4976600;28;20466;-59
2023/03/15 01:10:50;;;;;;;8.93;4.35;;;;;;;;;;4974707;28;20046;-59
2023/03/15 01:13:17;;;;;;;9.20;3.78;;;;;;;;;;4975668;28;20055;-59
2023/03/15 01:15:46;;;;;;;12.45;4.30;;;;;;;;;;4995536;28;20432;-59
2023/03/15 01:18:14;;;;;;;7.85;3.45;;;;;;;;;;4975374;28;20077;-59
2023/03/15 01:20:42;;;;;;;7.50;3.70;;;;;;;;;;4974412;28;20055;-59
2023/03/15 01:23:11;;;;;;;7.25;3.60;;;;;;;;;;4974730;28;20077;-59
2023/03/15 01:25:39;;;;;;;6.47;3.45;;;;;;;;;;4974601;28;20050;-59
2023/03/15 01:28:07;;;;;;;6.35;3.70;;;;;;;;;;4974003;28;20074;-59
2023/03/15 01:30:35;;;;;;;5.75;3.58;;;;;;;;;;4974360;28;20047;-59
2023/03/15 01:33:02;;;;;;;7.32;3.40;;;;;;;;;;4974096;28;20043;-59
2023/03/15 01:35:29;;;;;;;5.03;2.95;;;;;;;;;;4977082;28;20125;-59
2023/03/15 01:37:57;;;;;;;5.53;3.45;;;;;;;;;;4994872;28;20045;-58
2023/03/15 01:40:25;;;;;;;4.88;3.00;;;;;;;;;;4976389;28;20034;-58
2023/03/15 01:43:02;;;;;;;5.15;3.50;;;;;;;;;;4974323;28;20047;-59
2023/03/15 01:45:48;;;;;;;7.22;3.53;;;;;;;;;;4976967;28;20050;-59
2023/03/15 01:48:16;;;;;;;5.43;3.00;;;;;;;;;;4974977;28;20046;-59
2023/03/15 01:50:44;;;;;;;4.95;3.03;;;;;;;;;;4973914;28;20047;-59
2023/03/15 01:53:12;;;;;;;5.22;2.97;;;;;;;;;;4974247;28;20078;-59
2023/03/15 01:55:40;;;;;;;5.80;3.30;;;;;;;;;;4973824;28;20066;-59
2023/03/15 01:58:11;;;;;;;5.10;3.08;;;;;;;;;;4974126;28;20046;-59
2023/03/15 02:00:41;;;;;;;5.47;2.92;;;;;;;;;;4974093;28;20090;-59
2023/03/15 02:03:18;;;;;;;6.03;3.33;;;;;;;;;;4974398;28;20073;-59
2023/03/15 02:05:53;;;;;;;7.20;3.28;;;;;;;;;;4973582;28;20457;-58
2023/03/15 02:08:39;;;;;;;6.30;3.55;;;;;;;;;;4973704;28;20051;-58
2023/03/15 02:11:06;;;;;;;7.68;3.47;;;;;;;;;;4973616;28;20085;-58
2023/03/15 02:13:35;;;;;;;5.75;3.30;;;;;;;;;;4986054;28;20038;-58
2023/03/15 02:16:07;;;;;;;9.13;3.30;;;;;;;;;;4973491;28;20050;-58
2023/03/15 02:18:45;;;;;;;8.13;3.60;;;;;;;;;;4973348;28;20077;-57
2023/03/15 02:21:25;;;;;;;5.03;3.05;;;;;;;;;;4973665;28;20552;-58
2023/03/15 02:24:07;;;;;;;5.07;3.05;;;;;;;;;;4973286;28;20043;-58
2023/03/15 02:26:45;;;;;;;6.05;3.40;;;;;;;;;;4973173;28;20073;-58
2023/03/15 02:29:13;;;;;;;6.07;3.20;;;;;;;;;;4973799;28;20130;-58
2023/03/15 02:31:40;;;;;;;5.63;3.45;;;;;;;;;;4973126;28;20043;-58
2023/03/15 02:34:08;;;;;;;6.35;3.00;;;;;;;;;;4973445;28;20653;-58
2023/03/15 02:36:36;;;;;;;6.18;3.30;;;;;;;;;;4973312;28;20053;-58
2023/03/15 02:39:14;;;;;;;4.85;3.35;;;;;;;;;;4972415;28;20073;-58
2023/03/15 02:41:44;;;;;;;5.80;3.63;;;;;;;;;;4973031;28;20417;-58
2023/03/15 02:44:14;;;;;;;5.95;3.10;;;;;;;;;;4990721;28;20038;-58
2023/03/15 02:46:43;;;;;;;5.43;3.28;;;;;;;;;;4973101;28;20097;-58
2023/03/15 02:49:11;;;;;;;5.45;3.47;;;;;;;;;;4990548;28;20125;-58
2023/03/15 02:51:39;;;;;;;6.72;3.17;;;;;;;;;;4972644;28;20053;-57
2023/03/15 02:54:06;;;;;;;5.28;3.10;;;;;;;;;;4972851;28;20106;-58
2023/03/15 02:56:34;;;;;;;4.80;3.10;;;;;;;;;;4972773;28;20129;-58
2023/03/15 02:59:01;;;;;;;6.65;3.40;;;;;;;;;;4972688;28;20049;-58
2023/03/15 03:01:30;;;;;;;5.93;3.25;;;;;;;;;;4975656;28;20042;-57
2023/03/15 03:03:58;;;;;;;9.38;3.75;;;;;;;;;;4972782;28;20047;-57
2023/03/15 03:06:25;;;;;;;7.00;3.33;;;;;;;;;;4974926;28;20512;-57
2023/03/15 03:08:53;;;;;;;6.55;3.20;;;;;;;;;;4993259;28;20097;-58
2023/03/15 03:11:20;;;;;;;5.43;3.13;;;;;;;;;;4993538;28;20463;-58
2023/03/15 03:13:48;;;;;;;6.35;2.85;;;;;;;;;;4972620;28;20043;-58
2023/03/15 03:16:16;;;;;;;5.40;3.40;;;;;;;;;;4990918;28;20432;-58
2023/03/15 03:18:43;;;;;;;5.60;3.45;;;;;;;;;;4972638;28;20043;-58
2023/03/15 03:21:10;;;;;;;6.10;3.47;;;;;;;;;;4972877;28;20047;-58
2023/03/15 03:23:38;;;;;;;5.38;3.30;;;;;;;;;;4993390;28;20432;-58
2023/03/15 03:26:15;;;;;;;4.47;3.10;;;;;;;;;;4972292;28;20047;-58
2023/03/15 03:28:45;;;;;;;6.13;3.38;;;;;;;;;;4969018;28;20522;-58
2023/03/15 03:31:41;;;;;;;5.68;3.10;;;;;;;;;;4975557;28;20141;-59
2023/03/15 03:34:11;;;;;;;8.98;3.70;;;;;;;;;;4970311;28;20043;-58
2023/03/15 03:36:38;;;;;;;6.32;3.50;;;;;;;;;;4974534;28;20050;-59
2023/03/15 03:39:06;;;;;;;7.10;3.38;;;;;;;;;;4975299;28;20519;-59
2023/03/15 03:41:33;;;;;;;5.63;3.63;;;;;;;;;;4992960;28;20051;-58
2023/03/15 03:44:01;;;;;;;8.18;3.60;;;;;;;;;;4975237;28;20042;-58
2023/03/15 03:46:29;;;;;;;7.25;3.55;;;;;;;;;;4975387;28;20051;-57
2023/03/15 03:48:56;;;;;;;7.25;3.75;;;;;;;;;;4992918;28;20436;-58
2023/03/15 03:51:24;;;;;;;5.28;3.72;;;;;;;;;;4977102;28;20105;-58
2023/03/15 03:53:51;;;;;;;5.93;3.67;;;;;;;;;;4979195;28;20145;-58
2023/03/15 03:56:19;;;;;;;9.27;3.78;;;;;;;;;;4979288;28;20046;-58
2023/03/15 03:58:46;;;;;;;6.30;4.03;;;;;;;;;;4979215;28;20054;-58
2023/03/15 04:01:18;;;;;;;6.38;3.45;;;;;;;;;;4979251;28;20042;-58
2023/03/15 04:03:50;;;;;;;6.18;3.97;;;;;;;;;;4979170;28;20138;-58
2023/03/15 04:06:21;;;;;;;7.53;3.90;;;;;;;;;;4979388;28;20062;-58
2023/03/15 04:08:49;;;;;;;6.88;4.00;;;;;;;;;;4979227;28;20042;-58
2023/03/15 04:11:28;;;;;;;9.68;4.13;;;;;;;;;;4979795;28;20050;-59
2023/03/15 04:14:00;;;;;;;6.35;4.05;;;;;;;;;;4978877;28;20049;-59
2023/03/15 04:16:28;;;;;;;7.85;4.03;;;;;;;;;;4978870;28;20070;-58
2023/03/15 04:19:04;;;;;;;6.25;3.70;;;;;;;;;;4979125;28;20048;-58
2023/03/15 04:21:33;;;;;;;5.63;3.90;;;;;;;;;;4978587;28;20444;-58
2023/03/15 04:24:33;;;;;;;6.60;3.78;;;;;;;;;;4983085;28;20080;-58
2023/03/15 04:27:14;;;;;;;6.20;4.13;;;;;;;;;;4978548;28;20049;-57
2023/03/15 04:30:07;;;;;;;6.82;4.07;;;;;;;;;;4978671;28;20126;-58
2023/03/15 04:32:58;;;;;;;5.95;3.95;;;;;;;;;;4995041;28;20062;-58
2023/03/15 04:35:45;;;;;;;6.70;4.20;;;;;;;;;;4996007;28;20173;-58
2023/03/15 04:38:35;;;;;;;8.45;4.53;;;;;;;;;;4950462;28;20125;-58
2023/03/15 04:41:25;;;;;;;8.48;4.60;;;;;;;;;;4978374;28;20046;-58
2023/03/15 04:44:08;;;;;;;8.45;4.30;;;;;;;;;;4978009;28;20066;-58
2023/03/15 04:46:38;;;;;;;6.28;4.03;;;;;;;;;;4996072;28;20501;-58
2023/03/15 04:49:16;;;;;;;7.57;3.85;;;;;;;;;;4978290;28;20052;-58
2023/03/15 04:52:07;;;;;;;7.70;4.30;;;;;;;;;;4985139;28;20057;-58
2023/03/15 04:54:38;;;;;;;15.85;9.15;;;;;;;;;;4983979;28;20046;-58
2023/03/15 04:57:24;;;;;;;8.65;4.22;;;;;;;;;;4975311;28;20065;-58
2023/03/15 04:59:51;;;;;;;7.55;3.97;;;;;;;;;;4976303;28;20078;-58
2023/03/15 05:02:34;;;;;;;8.10;4.05;;;;;;;;;;4958017;28;20049;-58
2023/03/15 05:05:16;;;;;;;5.88;4.00;;;;;;;;;;4976083;28;20118;-58
2023/03/15 05:08:06;;;;;;;8.43;4.10;;;;;;;;;;4975081;28;20113;-58
2023/03/15 05:10:51;;;;;;;7.85;4.70;;;;;;;;;;4958849;28;20047;-58
2023/03/15 05:13:45;;;;;;;7.22;4.85;;;;;;;;;;4972690;28;20047;-58
2023/03/15 05:16:39;;;;;;;10.70;5.25;;;;;;;;;;4958562;28;20042;-58
2023/03/15 05:19:12;;;;;;;6.88;4.18;;;;;;;;;;4975746;28;20074;-58
2023/03/15 05:22:01;;;;;;;9.52;5.05;;;;;;;;;;4958247;28;20051;-58
2023/03/15 05:24:46;;;;;;;11.95;6.18;;;;;;;;;;4979448;28;20054;-58
2023/03/15 05:27:34;;;;;;;8.50;4.78;;;;;;;;;;4988219;28;20057;-57
2023/03/15 05:30:24;;;;;;;9.10;4.68;;;;;;;;;;4983782;28;20129;-58
2023/03/15 05:33:19;;;;;;;7.45;4.93;;;;;;;;;;4993431;28;20526;-58
2023/03/15 05:35:59;;;;;;;11.80;6.20;;;;;;;;;;4977204;28;20046;-58
2023/03/15 05:38:46;;;;;;;7.03;5.03;;;;;;;;;;4994772;28;20420;-58
2023/03/15 05:41:48;;;;;;;7.07;5.15;;;;;;;;;;4972840;28;20062;-58
2023/03/15 05:44:55;;;;;;;6.55;4.20;;;;;;;;;;4934607;29;20067;-58
2023/03/15 05:47:42;;;;;;;11.82;6.75;;;;;;;;;;4927702;29;20122;-57
2023/03/15 05:50:27;;;;;;;18.40;9.63;;;;;;;;;;4962113;28;20057;-57
2023/03/15 05:53:18;;;;;;;17.20;10.13;;;;;;;;;;4973512;28;20055;-57
2023/03/15 05:56:23;;;;;;;9.97;6.30;;;;;;;;;;4979782;28;20052;-57
2023/03/15 05:59:11;;;;;;;10.88;5.85;;;;;;;;;;4993753;28;20105;-57
2023/03/15 06:01:57;;;;;;;6.10;4.38;;;;;;;;;;4994652;28;20496;-57
2023/03/15 06:04:32;;;;;;;7.65;4.60;;;;;;;;;;4976768;28;20050;-57
2023/03/15 06:07:00;;;;;;;7.82;4.65;;;;;;;;;;4993103;28;20144;-57
2023/03/15 06:09:28;;;;;;;8.85;5.00;;;;;;;;;;4992936;28;20405;-58
2023/03/15 06:11:56;;;;;;;9.93;4.30;;;;;;;;;;4976731;28;20086;-58
2023/03/15 06:14:23;;;;;;;7.78;4.85;;;;;;;;;;4992911;28;20504;-57
2023/03/15 06:16:55;;;;;;;7.32;4.50;;;;;;;;;;4976754;28;20050;-58
2023/03/15 06:19:24;;;;;;;8.30;5.28;;;;;;;;;;4976485;28;20126;-58
2023/03/15 06:21:54;;;;;;;8.00;4.80;;;;;;;;;;4992734;28;20081;-58
2023/03/15 06:24:30;;;;;;;7.30;4.60;;;;;;;;;;4992749;28;20051;-58
2023/03/15 06:26:59;;;;;;;9.07;4.75;;;;;;;;;;4992873;28;20046;-58
2023/03/15 06:29:27;;;;;;;9.50;5.05;;;;;;;;;;4992857;28;20041;-58
2023/03/15 06:31:57;;;;;;;8.80;4.80;;;;;;;;;;4976368;28;20097;-58
2023/03/15 06:34:26;;;;;;;6.38;4.30;;;;;;;;;;4992508;28;20412;-58
2023/03/15 06:36:54;;;;;;;7.47;4.90;;;;;;;;;;4992571;28;20129;-58
2023/03/15 06:39:22;;;;;;;9.35;4.90;;;;;;;;;;4976412;28;20046;-58
2023/03/15 06:41:57;;;;;;;7.53;4.72;;;;;;;;;;4992341;28;20408;-58
2023/03/15 06:44:27;;;;;;;7.55;4.88;;;;;;;;;;4976112;28;20046;-58
2023/03/15 06:46:59;;;;;;;10.93;5.55;;;;;;;;;;4992471;28;20048;-58
2023/03/15 06:49:27;;;;;;;10.45;4.97;;;;;;;;;;4976465;28;20493;-58
2023/03/15 06:51:54;;;;;;;12.63;7.57;;;;;;;;;;4976418;28;20050;-58
2023/03/15 06:54:22;;;;;;;9.90;6.05;;;;;;;;;;4975823;28;20101;-58
2023/03/15 06:56:49;;;;;;;10.68;5.80;;;;;;;;;;4992242;28;20557;-58
2023/03/15 06:59:17;;;;;;;9.88;5.32;;;;;;;;;;4993921;28;20046;-58
2023/03/15 07:01:44;;;;;;;12.30;5.40;;;;;;;;;;4993404;28;20519;-58
2023/03/15 07:04:12;;;;;;;7.80;4.93;;;;;;;;;;4993663;28;20109;-58
2023/03/15 07:06:39;;;;;;;13.35;5.57;;;;;;;;;;4993337;28;20555;-58
2023/03/15 07:09:07;;;;;;;7.70;4.90;;;;;;;;;;4993455;28;20042;-58
2023/03/15 07:11:34;;;;;;;9.23;5.50;;;;;;;;;;4993386;28;20162;-58
2023/03/15 07:14:02;;;;;;;11.02;5.05;;;;;;;;;;4993278;28;20046;-58
2023/03/15 07:16:29;;;;;;;6.75;4.57;;;;;;;;;;4993418;28;20042;-58
2023/03/15 07:18:58;;;;;;;9.80;5.78;;;;;;;;;;4993238;28;20045;-58
2023/03/15 07:21:26;;;;;;;14.38;10.75;;;;;;;;;;4993168;28;20047;-58
2023/03/15 07:23:54;;;;;;;8.02;4.70;;;;;;;;;;4991872;28;20046;-58
2023/03/15 07:26:21;;;;;;;8.48;4.78;;;;;;;;;;4991546;28;20138;-57
2023/03/15 07:28:49;;;;;;;13.52;6.97;;;;;;;;;;4993555;28;20042;-59
2023/03/15 07:31:16;;;;;;;11.52;6.63;;;;;;;;;;4993045;28;20444;-60
2023/03/15 07:33:44;;;;;;;11.10;7.00;;;;;;;;;;4993006;28;20076;-60
2023/03/15 07:36:11;;;;;;;13.48;7.93;;;;;;;;;;4991829;28;20049;-60
2023/03/15 07:38:40;;;;;;;9.98;6.20;;;;;;;;;;4992951;28;20101;-61
2023/03/15 07:41:10;;;;;;;9.65;5.72;;;;;;;;;;4993040;28;20077;-60
2023/03/15 07:43:40;;;;;;;14.57;7.72;;;;;;;;;;4991776;28;20053;-58
2023/03/15 07:46:14;;;;;;;8.50;5.20;;;;;;;;;;4975690;28;20057;-58
2023/03/15 07:48:42;;;;;;;8.75;5.20;;;;;;;;;;4975729;28;20547;-58
2023/03/15 07:51:09;;;;;;;9.57;5.38;;;;;;;;;;4993037;28;20097;-58
2023/03/15 07:53:37;;;;;;;8.63;5.10;;;;;;;;;;4975616;28;20042;-58
2023/03/15 07:56:05;;;;;;;9.23;5.30;;;;;;;;;;4993047;28;20050;-58
2023/03/15 07:58:32;;;;;;;10.23;4.90;;;;;;;;;;4993034;28;20484;-58
2023/03/15 08:01:00;;;;;;;8.70;5.30;;;;;;;;;;4992732;28;20057;-57
2023/03/15 08:03:27;;;;;;;8.88;5.30;;;;;;;;;;4975357;28;20039;-58
2023/03/15 08:05:55;;;;;;;6.80;4.40;;;;;;;;;;4992679;28;20097;-58
2023/03/15 08:08:25;;;;;;;7.70;5.10;;;;;;;;;;4992810;28;20042;-58
2023/03/15 08:10:54;;;;;;;13.20;6.82;;;;;;;;;;4992879;28;20038;-58
2023/03/15 08:13:23;;;;;;;6.35;4.00;;;;;;;;;;4992780;28;20073;-61
2023/03/15 08:15:50;;;;;;;8.45;5.13;;;;;;;;;;4992732;28;20035;-60
2023/03/15 08:18:18;;;;;;;10.77;4.90;;;;;;;;;;4991541;28;20065;-58
2023/03/15 08:20:45;;;;;;;8.27;4.70;;;;;;;;;;4992705;28;20054;-60
2023/03/15 08:23:15;;;;;;;8.02;4.25;;;;;;;;;;4992580;28;20511;-59
2023/03/15 08:25:43;;;;;;;7.95;4.85;;;;;;;;;;4992634;28;20046;-58
2023/03/15 08:28:11;;;;;;;10.43;5.38;;;;;;;;;;4992684;28;20054;-57
2023/03/15 08:30:39;;;;;;;15.77;6.30;;;;;;;;;;4992495;28;20038;-57
2023/03/15 08:33:07;;;;;;;11.43;6.05;;;;;;;;;;4992458;28;20043;-58
2023/03/15 08:35:34;;;;;;;9.65;5.43;;;;;;;;;;4992615;28;20039;-58
2023/03/15 08:38:02;;;;;;;8.90;4.97;;;;;;;;;;4994092;28;20048;-58
2023/03/15 08:40:30;;;;;;;8.38;4.90;;;;;;;;;;4995954;28;20046;-58
2023/03/15 08:42:57;;;;;;;9.65;5.05;;;;;;;;;;4996202;28;20045;-58
2023/03/15 08:45:26;;;;;;;7.55;4.65;;;;;;;;;;4995816;28;20038;-58
2023/03/15 08:47:54;;;;;;;8.75;5.28;;;;;;;;;;4996127;28;20124;-59
2023/03/15 08:50:21;;;;;;;9.32;5.07;;;;;;;;;;4978441;28;20050;-59
2023/03/15 08:52:49;;;;;;;11.07;5.65;;;;;;;;;;4995749;28;20038;-58
2023/03/15 08:55:17;;;;;;;10.38;5.60;;;;;;;;;;4995603;28;20129;-58
2023/03/15 08:57:44;;;;;;;9.25;5.20;;;;;;;;;;4995784;28;20042;-60
2023/03/15 09:00:19;;;;;;;8.95;4.70;;;;;;;;;;4995763;28;20046;-57
2023/03/15 09:02:48;;;;;;;8.48;5.07;;;;;;;;;;4995574;28;20117;-58
2023/03/15 09:05:16;;;;;;;7.50;5.15;;;;;;;;;;4994418;28;20043;-58
2023/03/15 09:07:44;;;;;;;7.70;4.85;;;;;;;;;;4995457;28;20047;-58
2023/03/15 09:10:13;;;;;;;10.15;5.15;;;;;;;;;;4995533;28;20077;-58
2023/03/15 09:12:46;;;;;;;8.15;4.80;;;;;;;;;;4995918;28;20038;-58
2023/03/15 09:15:14;;;;;;;9.38;5.40;;;;;;;;;;4995309;28;20050;-58
2023/03/15 09:17:41;;;;;;;8.50;4.75;;;;;;;;;;4995137;28;20038;-59
2023/03/15 09:20:13;;;;;;;10.75;5.50;;;;;;;;;;4995229;28;20448;-58
2023/03/15 09:22:41;;;;;;;8.02;4.80;;;;;;;;;;4995338;28;20043;-58
2023/03/15 09:25:09;;;;;;;10.30;4.88;;;;;;;;;;4995056;28;20428;-58
2023/03/15 09:27:37;;;;;;;8.48;4.68;;;;;;;;;;4995088;28;20567;-58
2023/03/15 09:30:05;;;;;;;9.38;5.43;;;;;;;;;;4993951;28;20066;-58
2023/03/15 09:32:35;;;;;;;7.72;4.88;;;;;;;;;;4994996;28;20047;-58
2023/03/15 09:35:03;;;;;;;7.57;4.65;;;;;;;;;;4994849;28;20038;-57
2023/03/15 09:37:31;;;;;;;12.90;4.45;;;;;;;;;;4995328;28;20449;-57
2023/03/15 09:39:58;;;;;;;7.57;4.88;;;;;;;;;;4995038;28;20050;-57
2023/03/15 09:42:26;;;;;;;7.10;4.40;;;;;;;;;;4994962;28;20101;-58
2023/03/15 09:45:12;;;;;;;8.95;5.05;;;;;;;;;;4994909;28;20481;-58
2023/03/15 09:47:46;;;;;;;10.13;5.50;;;;;;;;;;4995054;28;20440;-60
2023/03/15 09:50:20;;;;;;;10.48;4.60;;;;;;;;;;4994647;28;20122;-58
2023/03/15 09:52:53;;;;;;;7.15;3.97;;;;;;;;;;4994711;28;20039;-58
2023/03/15 09:55:25;;;;;;;7.55;4.40;;;;;;;;;;4994602;28;20403;-59
2023/03/15 09:57:54;;;;;;;7.35;4.90;;;;;;;;;;4994915;28;20047;-58
2023/03/15 10:00:25;;;;;;;11.10;5.03;;;;;;;;;;4993333;28;20050;-58
2023/03/15 10:03:05;;;;;;;9.15;5.47;;;;;;;;;;4994603;28;20109;-58
2023/03/15 10:05:52;;;;;;;14.07;6.82;;;;;;;;;;4994620;28;20130;-58
2023/03/15 10:08:19;;;;;;;7.95;5.63;;;;;;;;;;4994352;28;20523;-58
2023/03/15 10:10:51;;;;;;;7.65;4.20;;;;;;;;;;4994351;28;20096;-57
2023/03/15 10:13:18;;;;;;;10.48;5.60;;;;;;;;;;4994281;28;20085;-58
2023/03/15 10:15:55;;;;;;;9.88;6.03;;;;;;;;;;4994401;28;20089;-59
2023/03/15 10:18:26;;;;;;;7.93;5.20;;;;;;;;;;4994445;28;20045;-58
2023/03/15 10:21:05;;;;;;;9.93;6.03;;;;;;;;;;4994208;28;20058;-58
2023/03/15 10:23:42;;;;;;;7.90;5.13;;;;;;;;;;4977227;28;20047;-57
2023/03/15 10:26:11;;;;;;;9.43;5.60;;;;;;;;;;4994391;28;20058;-59
2023/03/15 10:28:40;;;;;;;8.02;4.72;;;;;;;;;;4994146;28;20044;-60
2023/03/15 10:31:11;;;;;;;10.10;5.13;;;;;;;;;;4994215;28;20049;-59
2023/03/15 10:33:46;;;;;;;9.02;5.00;;;;;;;;;;4994122;28;20054;-58
2023/03/15 10:36:18;;;;;;;10.75;6.28;;;;;;;;;;4994214;28;20034;-58
2023/03/15 10:38:47;;;;;;;11.32;6.80;;;;;;;;;;4994141;28;20409;-58
2023/03/15 10:41:27;;;;;;;9.20;5.68;;;;;;;;;;4993721;28;20046;-58
2023/03/15 10:43:57;;;;;;;9.38;5.22;;;;;;;;;;4994016;28;20117;-58
2023/03/15 10:46:25;;;;;;;8.02;5.15;;;;;;;;;;4993813;28;20076;-60
2023/03/15 10:49:00;;;;;;;10.75;4.63;;;;;;;;;;4993756;28;20069;-60
2023/03/15 10:51:27;;;;;;;;;;;;;;;;;;4994000;28;20069;-58
2023/03/15 10:53:58;;;;;;;7.97;4.20;;;;;;;;;;4993544;28;19925;-59
2023/03/15 10:56:27;;;;;;;5.57;4.28;;;;;;;;;;4993566;28;20038;-57
2023/03/15 10:58:55;;;;;;;8.40;4.40;;;;;;;;;;4993572;28;20046;-59
2023/03/15 11:01:38;;;;;;;10.45;4.60;;;;;;;;;;4993081;28;20050;-59
2023/03/15 11:04:16;;;;;;;9.45;5.13;;;;;;;;;;4992168;28;20093;-58
2023/03/15 11:06:44;;;;;;;9.43;4.57;;;;;;;;;;4993722;28;20089;-57
2023/03/15 11:09:16;;;;;;;6.80;4.78;;;;;;;;;;4993560;28;20046;-57
2023/03/15 11:11:54;;;;;;;7.00;4.32;;;;;;;;;;4993205;28;20042;-57
2023/03/15 11:14:22;;;;;;;5.88;4.13;;;;;;;;;;4993297;28;20396;-57
2023/03/15 11:16:51;;;;;;;10.57;4.72;;;;;;;;;;4993282;28;20053;-59
2023/03/15 11:19:25;;;;;;;8.27;4.63;;;;;;;;;;4993062;28;20038;-57
2023/03/15 11:21:52;;;;;;;8.52;4.53;;;;;;;;;;4993513;28;20038;-59
2023/03/15 11:24:24;;;;;;;8.35;4.40;;;;;;;;;;4993371;28;20041;-59
2023/03/15 11:26:53;;;;;;;6.82;4.18;;;;;;;;;;4993092;28;20108;-59
2023/03/15 11:29:30;;;;;;;12.07;4.88;;;;;;;;;;4975815;28;20165;-59
2023/03/15 11:31:59;;;;;;;9.20;4.95;;;;;;;;;;4993097;28;20096;-57
2023/03/15 11:34:35;;;;;;;7.43;4.72;;;;;;;;;;4992968;28;20093;-57
2023/03/15 11:37:29;;;;;;;8.60;4.82;;;;;;;;;;4993077;28;20492;-60
2023/03/15 11:40:00;;;;;;;6.93;4.70;;;;;;;;;;4967878;28;20129;-60
2023/03/15 11:42:48;;;;;;;9.15;4.57;;;;;;;;;;4992976;28;20050;-60
2023/03/15 11:45:23;;;;;;;11.63;4.80;;;;;;;;;;4992862;28;20559;-59
2023/03/15 11:47:53;;;;;;;6.03;4.40;;;;;;;;;;4993006;28;20045;-59
2023/03/15 11:50:21;;;;;;;6.60;4.13;;;;;;;;;;4975402;28;20470;-59
2023/03/15 11:52:50;;;;;;;7.90;4.50;;;;;;;;;;4992900;28;20037;-59
2023/03/15 11:55:23;;;;;;;9.48;4.47;;;;;;;;;;4993143;28;20050;-60
2023/03/15 11:57:52;;;;;;;8.43;4.50;;;;;;;;;;4993085;28;20050;-59
2023/03/15 12:00:20;;;;;;;10.88;4.70;;;;;;;;;;4993070;28;20047;-60
2023/03/15 12:02:49;;;;;;;9.77;4.88;;;;;;;;;;4992779;28;20042;-60
2023/03/15 12:05:36;;;;;;;8.60;4.55;;;;;;;;;;4993010;28;20128;-60
2023/03/15 12:08:21;;;;;;;14.25;6.05;;;;;;;;;;4992780;28;20049;-60
2023/03/15 12:10:49;;;;;;;8.75;4.75;;;;;;;;;;4992913;28;20129;-59
2023/03/15 12:13:18;;;;;;;9.30;5.03;;;;;;;;;;4996204;28;20071;-59
2023/03/15 12:15:47;;;;;;;6.20;4.35;;;;;;;;;;4996740;28;20125;-60
2023/03/15 12:18:16;;;;;;;8.23;4.20;;;;;;;;;;4996532;28;20563;-59
2023/03/15 12:20:51;;;;;;;7.50;4.28;;;;;;;;;;4996350;28;20050;-60
2023/03/15 12:23:18;;;;;;;6.20;4.13;;;;;;;;;;4996349;28;20050;-59
2023/03/15 12:26:04;;;;;;;9.30;4.90;;;;;;;;;;4996332;28;20448;-59
2023/03/15 12:28:34;;;;;;;8.35;4.22;;;;;;;;;;4995753;28;20034;-60
2023/03/15 12:31:03;;;;;;;6.65;3.80;;;;;;;;;;4996145;28;20081;-59
2023/03/15 12:33:32;;;;;;;8.63;4.85;;;;;;;;;;4995899;28;20089;-60
2023/03/15 12:36:02;;;;;;;8.43;4.40;;;;;;;;;;4996612;28;20050;-59
2023/03/15 12:38:36;;;;;;;5.72;3.97;;;;;;;;;;4996307;28;20054;-59
2023/03/15 12:41:08;;;;;;;8.05;5.55;;;;;;;;;;4978586;28;20060;-59
2023/03/15 12:43:43;;;;;;;8.02;4.95;;;;;;;;;;4995323;28;20046;-59
2023/03/15 12:46:29;;;;;;;7.50;4.68;;;;;;;;;;4995987;28;20105;-58
2023/03/15 12:49:15;;;;;;;7.70;5.13;;;;;;;;;;4995537;28;20042;-57
2023/03/15 12:51:57;;;;;;;7.60;4.50;;;;;;;;;;4995584;28;20057;-57
2023/03/15 12:54:30;;;;;;;6.57;4.13;;;;;;;;;;4995590;28;20050;-57
2023/03/15 12:56:59;;;;;;;5.75;4.30;;;;;;;;;;4995426;28;20546;-58
2023/03/15 12:59:32;;;;;;;7.28;4.75;;;;;;;;;;4994886;28;20042;-58
2023/03/15 13:02:01;;;;;;;6.25;3.75;;;;;;;;;;4995366;28;20069;-58
2023/03/15 13:04:29;;;;;;;8.52;4.78;;;;;;;;;;4995457;28;20054;-57
2023/03/15 13:07:09;;;;;;;9.25;4.55;;;;;;;;;;4995496;28;20076;-58
2023/03/15 13:10:00;;;;;;;9.10;4.00;;;;;;;;;;4988023;28;20050;-58
2023/03/15 13:12:33;;;;;;;7.57;3.85;;;;;;;;;;4995199;28;20038;-58
2023/03/15 13:15:07;;;;;;;5.53;3.92;;;;;;;;;;4995310;28;20038;-59
2023/03/15 13:17:44;;;;;;;8.77;4.10;;;;;;;;;;4995419;28;20039;-60
2023/03/15 13:20:30;;;;;;;6.55;4.32;;;;;;;;;;4974842;28;20472;-58
2023/03/15 13:23:18;;;;;;;7.43;4.25;;;;;;;;;;4994850;28;20042;-59
2023/03/15 13:25:46;;;;;;;6.25;4.03;;;;;;;;;;4995179;28;20524;-59
2023/03/15 13:28:13;;;;;;;7.75;3.60;;;;;;;;;;4995401;28;20043;-58
2023/03/15 13:30:42;;;;;;;10.48;4.88;;;;;;;;;;4994962;28;20100;-59
2023/03/15 13:33:25;;;;;;;5.68;4.03;;;;;;;;;;4995176;28;20042;-59
2023/03/15 13:35:55;;;;;;;8.02;4.25;;;;;;;;;;4994887;28;20057;-59
2023/03/15 13:38:25;;;;;;;7.50;4.10;;;;;;;;;;4995006;28;20038;-58
2023/03/15 13:40:53;;;;;;;7.05;4.07;;;;;;;;;;4995375;28;20042;-58
2023/03/15 13:43:24;;;;;;;8.18;4.10;;;;;;;;;;4994688;28;20121;-58
2023/03/15 13:45:53;;;;;;;9.25;4.25;;;;;;;;;;4994868;28;20061;-58
2023/03/15 13:48:21;;;;;;;12.80;4.40;;;;;;;;;;4994716;28;20042;-58
2023/03/15 13:50:53;;;;;;;7.65;3.95;;;;;;;;;;4994926;28;20109;-58
2023/03/15 13:53:24;;;;;;;6.47;4.10;;;;;;;;;;4994515;28;20493;-59
2023/03/15 13:56:16;;;;;;;9.23;4.20;;;;;;;;;;4994425;28;20563;-58
2023/03/15 13:58:44;;;;;;;7.78;3.90;;;;;;;;;;4994545;28;20401;-58
2023/03/15 14:01:12;;;;;;;11.27;4.22;;;;;;;;;;4994473;28;20100;-58
2023/03/15 14:03:42;;;;;;;8.38;4.20;;;;;;;;;;4994440;28;20127;-58
2023/03/15 14:06:12;;;;;;;6.57;3.80;;;;;;;;;;4994308;28;20038;-58
2023/03/15 14:08:40;;;;;;;8.38;3.72;;;;;;;;;;4994288;28;20053;-58
2023/03/15 14:11:11;;;;;;;10.23;4.07;;;;;;;;;;4994303;28;20046;-58
2023/03/15 14:13:52;;;;;;;9.70;5.18;;;;;;;;;;4987097;28;20046;-58
2023/03/15 14:16:32;;;;;;;7.28;4.60;;;;;;;;;;4994136;28;20453;-59
2023/03/15 14:19:18;;;;;;;8.52;4.45;;;;;;;;;;4973624;28;20050;-58
2023/03/15 14:21:47;;;;;;;8.95;4.32;;;;;;;;;;4987715;28;20071;-58
2023/03/15 14:24:22;;;;;;;6.30;3.85;;;;;;;;;;4994053;28;20050;-58
2023/03/15 14:26:50;;;;;;;6.07;3.95;;;;;;;;;;4994057;28;20084;-58
2023/03/15 14:29:21;;;;;;;8.65;4.28;;;;;;;;;;4994011;28;20054;-58
2023/03/15 14:31:49;;;;;;;11.95;5.32;;;;;;;;;;4993857;28;20501;-59
2023/03/15 14:34:16;;;;;;;13.30;6.00;;;;;;;;;;4993780;28;20100;-60
2023/03/15 14:36:46;;;;;;;12.60;5.90;;;;;;;;;;4993007;28;20050;-59
2023/03/15 14:39:24;;;;;;;8.15;5.80;;;;;;;;;;4974016;28;20039;-59
2023/03/15 14:41:52;;;;;;;9.15;5.95;;;;;;;;;;4993822;28;20481;-59
2023/03/15 14:44:19;;;;;;;12.82;5.70;;;;;;;;;;4993676;28;20046;-58
2023/03/15 14:46:48;;;;;;;12.25;5.70;;;;;;;;;;4987456;28;20131;-59
2023/03/15 14:49:21;;;;;;;13.20;6.32;;;;;;;;;;4990838;28;20496;-59
2023/03/15 14:51:51;;;;;;;18.08;8.27;;;;;;;;;;4993471;28;20085;-59
2023/03/15 14:54:19;;;;;;;15.80;8.15;;;;;;;;;;4993355;28;20484;-59
2023/03/15 14:56:46;;;;;;;12.77;6.22;;;;;;;;;;4993522;28;20073;-59
2023/03/15 14:59:14;;;;;;;9.90;5.63;;;;;;;;;;4990347;28;20073;-59
2023/03/15 15:01:44;;;;;;;10.98;5.70;;;;;;;;;;4990206;28;20396;-60
2023/03/15 15:04:13;;;;;;;15.75;5.80;;;;;;;;;;4992070;28;20551;-59
2023/03/15 15:06:49;;;;;;;10.55;6.13;;;;;;;;;;4975508;28;20038;-59
2023/03/15 15:09:19;;;;;;;13.32;6.68;;;;;;;;;;4993099;28;20046;-59
2023/03/15 15:11:46;;;;;;;15.20;8.05;;;;;;;;;;4993012;28;20046;-59